sensor_id;sensor_type;location;lat;lon;timestamp;pressure;altitude;pressure_sealevel;temperature;humidity
17311;BME280;8773;43.300;0.394;2023-03-14T00:00:08;99450.34;;;12.69;nan
17311;BME280;8773;43.300;0.394;2023-03-14T00:02:37;99453.03;;;12.69;nan
17311;BME280;8773;43.300;0.394;2023-03-14T00:05:06;99448.69;;;12.68;nan
17311;BME280;8773;43.300;0.394;2023-03-14T00:07:36;99448.06;;;12.58;nan
17311;BME280;8773;43.300;0.394;2023-03-14T00:10:06;99464.91;;;12.35;nan
17311;BME280;8773;43.300;0.394;2023-03-14T00:12:35;99455.44;;;12.56;nan
17311;BME280;8773;43.300;0.394;2023-03-14T00:15:03;99471.66;;;12.62;nan
17311;BME280;8773;43.300;0.394;2023-03-14T00:17:35;99475.69;;;12.50;nan
17311;BME280;8773;43.300;0.394;2023-03-14T00:20:06;99471.78;;;12.69;nan
17311;BME280;8773;43.300;0.394;2023-03-14T00:22:36;99473.06;;;12.81;nan
17311;BME280;8773;43.300;0.394;2023-03-14T00:25:06;99484.66;;;12.73;nan
17311;BME280;8773;43.300;0.394;2023-03-14T00:27:36;99481.38;;;12.86;nan
17311;BME280;8773;43.300;0.394;2023-03-14T00:30:05;99485.50;;;12.74;nan
17311;BME280;8773;43.300;0.394;2023-03-14T00:32:36;99485.13;;;12.77;nan
17311;BME280;8773;43.300;0.394;2023-03-14T00:35:05;99492.38;;;12.68;nan
17311;BME280;8773;43.300;0.394;2023-03-14T00:37:36;99499.06;;;12.72;nan
17311;BME280;8773;43.300;0.394;2023-03-14T00:40:05;99512.97;;;12.68;nan
17311;BME280;8773;43.300;0.394;2023-03-14T00:42:34;99508.63;;;12.67;nan
17311;BME280;8773;43.300;0.394;2023-03-14T00:45:02;99510.25;;;12.76;nan
17311;BME280;8773;43.300;0.394;2023-03-14T00:47:30;99511.41;;;12.82;nan
17311;BME280;8773;43.300;0.394;2023-03-14T00:49:59;99513.31;;;12.65;nan
17311;BME280;8773;43.300;0.394;2023-03-14T00:52:27;99529.41;;;12.49;nan
17311;BME280;8773;43.300;0.394;2023-03-14T00:54:56;99513.78;;;12.29;nan
17311;BME280;8773;43.300;0.394;2023-03-14T00:57:24;99529.66;;;12.31;nan
17311;BME280;8773;43.300;0.394;2023-03-14T00:59:52;99535.88;;;12.23;nan
17311;BME280;8773;43.300;0.394;2023-03-14T01:02:20;99517.44;;;12.36;nan
17311;BME280;8773;43.300;0.394;2023-03-14T01:04:48;99535.47;;;12.42;nan
17311;BME280;8773;43.300;0.394;2023-03-14T01:07:18;99531.94;;;12.50;nan
17311;BME280;8773;43.300;0.394;2023-03-14T01:09:46;99540.13;;;12.49;nan
17311;BME280;8773;43.300;0.394;2023-03-14T01:12:14;99537.38;;;12.18;nan
17311;BME280;8773;43.300;0.394;2023-03-14T01:14:41;99562.81;;;12.22;nan
17311;BME280;8773;43.300;0.394;2023-03-14T01:17:09;99561.31;;;12.19;nan
17311;BME280;8773;43.300;0.394;2023-03-14T01:19:37;99546.25;;;12.18;nan
17311;BME280;8773;43.300;0.394;2023-03-14T01:22:06;99554.94;;;12.28;nan
17311;BME280;8773;43.300;0.394;2023-03-14T01:24:36;99561.28;;;12.35;nan
17311;BME280;8773;43.300;0.394;2023-03-14T01:27:04;99573.53;;;12.22;nan
17311;BME280;8773;43.300;0.394;2023-03-14T01:29:32;99566.00;;;12.09;nan
17311;BME280;8773;43.300;0.394;2023-03-14T01:32:00;99551.16;;;11.90;nan
17311;BME280;8773;43.300;0.394;2023-03-14T01:34:28;99546.28;;;12.02;nan
17311;BME280;8773;43.300;0.394;2023-03-14T01:36:56;99560.50;;;12.02;nan
17311;BME280;8773;43.300;0.394;2023-03-14T01:39:24;99552.78;;;12.24;nan
17311;BME280;8773;43.300;0.394;2023-03-14T01:41:54;99563.81;;;12.21;nan
17311;BME280;8773;43.300;0.394;2023-03-14T01:44:22;99558.81;;;12.01;nan
17311;BME280;8773;43.300;0.394;2023-03-14T01:46:50;99563.84;;;12.04;nan
17311;BME280;8773;43.300;0.394;2023-03-14T01:49:22;99566.19;;;12.07;nan
17311;BME280;8773;43.300;0.394;2023-03-14T01:51:55;99563.31;;;12.09;nan
17311;BME280;8773;43.300;0.394;2023-03-14T01:54:27;99554.97;;;12.12;nan
17311;BME280;8773;43.300;0.394;2023-03-14T01:57:03;99552.97;;;12.06;nan
17311;BME280;8773;43.300;0.394;2023-03-14T01:59:32;99558.00;;;12.01;nan
17311;BME280;8773;43.300;0.394;2023-03-14T02:02:02;99551.28;;;12.05;nan
17311;BME280;8773;43.300;0.394;2023-03-14T02:04:34;99553.34;;;11.95;nan
17311;BME280;8773;43.300;0.394;2023-03-14T02:07:07;99578.72;;;12.07;nan
17311;BME280;8773;43.300;0.394;2023-03-14T02:09:37;99555.47;;;12.16;nan
17311;BME280;8773;43.300;0.394;2023-03-14T02:12:08;99559.63;;;12.18;nan
17311;BME280;8773;43.300;0.394;2023-03-14T02:14:37;99556.97;;;12.10;nan
17311;BME280;8773;43.300;0.394;2023-03-14T02:17:07;99552.63;;;12.09;nan
17311;BME280;8773;43.300;0.394;2023-03-14T02:19:50;99569.53;;;12.01;nan
17311;BME280;8773;43.300;0.394;2023-03-14T02:22:22;99561.16;;;12.13;nan
17311;BME280;8773;43.300;0.394;2023-03-14T02:24:56;99564.16;;;12.01;nan
17311;BME280;8773;43.300;0.394;2023-03-14T02:27:27;99567.03;;;12.00;nan
17311;BME280;8773;43.300;0.394;2023-03-14T02:29:58;99569.72;;;11.92;nan
17311;BME280;8773;43.300;0.394;2023-03-14T02:32:30;99579.06;;;12.12;nan
17311;BME280;8773;43.300;0.394;2023-03-14T02:35:01;99571.06;;;11.96;nan
17311;BME280;8773;43.300;0.394;2023-03-14T02:37:35;99578.03;;;12.13;nan
17311;BME280;8773;43.300;0.394;2023-03-14T02:40:05;99589.47;;;11.91;nan
17311;BME280;8773;43.300;0.394;2023-03-14T02:42:35;99587.63;;;11.83;nan
17311;BME280;8773;43.300;0.394;2023-03-14T02:45:34;99615.50;;;11.64;nan
17311;BME280;8773;43.300;0.394;2023-03-14T02:48:06;99615.53;;;11.81;nan
17311;BME280;8773;43.300;0.394;2023-03-14T02:50:35;99611.50;;;11.68;nan
17311;BME280;8773;43.300;0.394;2023-03-14T02:53:03;99621.53;;;11.58;nan
17311;BME280;8773;43.300;0.394;2023-03-14T02:55:31;99614.50;;;11.49;nan
17311;BME280;8773;43.300;0.394;2023-03-14T02:58:00;99626.03;;;11.50;nan
17311;BME280;8773;43.300;0.394;2023-03-14T03:00:28;99608.63;;;11.37;nan
17311;BME280;8773;43.300;0.394;2023-03-14T03:02:57;99628.09;;;11.22;nan
17311;BME280;8773;43.300;0.394;2023-03-14T03:05:25;99622.72;;;11.14;nan
17311;BME280;8773;43.300;0.394;2023-03-14T03:07:53;99619.25;;;11.21;nan
17311;BME280;8773;43.300;0.394;2023-03-14T03:10:23;99604.78;;;11.32;nan
17311;BME280;8773;43.300;0.394;2023-03-14T03:12:51;99604.28;;;11.28;nan
17311;BME280;8773;43.300;0.394;2023-03-14T03:15:21;99605.44;;;11.34;nan
17311;BME280;8773;43.300;0.394;2023-03-14T03:17:49;99604.72;;;11.24;nan
17311;BME280;8773;43.300;0.394;2023-03-14T03:20:17;99593.84;;;11.09;nan
17311;BME280;8773;43.300;0.394;2023-03-14T03:22:45;99609.00;;;11.43;nan
17311;BME280;8773;43.300;0.394;2023-03-14T03:25:13;99609.16;;;11.41;nan
17311;BME280;8773;43.300;0.394;2023-03-14T03:27:42;99613.16;;;11.45;nan
17311;BME280;8773;43.300;0.394;2023-03-14T03:30:10;99599.47;;;11.48;nan
17311;BME280;8773;43.300;0.394;2023-03-14T03:32:40;99603.13;;;11.55;nan
17311;BME280;8773;43.300;0.394;2023-03-14T03:35:09;99607.16;;;11.43;nan
17311;BME280;8773;43.300;0.394;2023-03-14T03:37:37;99611.50;;;11.60;nan
17311;BME280;8773;43.300;0.394;2023-03-14T03:40:06;99618.88;;;11.50;nan
17311;BME280;8773;43.300;0.394;2023-03-14T03:42:35;99602.81;;;11.58;nan
17311;BME280;8773;43.300;0.394;2023-03-14T03:45:04;99627.06;;;11.73;nan
17311;BME280;8773;43.300;0.394;2023-03-14T03:47:33;99625.38;;;11.48;nan
17311;BME280;8773;43.300;0.394;2023-03-14T03:50:02;99629.53;;;11.58;nan
17311;BME280;8773;43.300;0.394;2023-03-14T03:52:31;99627.38;;;11.62;nan
17311;BME280;8773;43.300;0.394;2023-03-14T03:54:59;99636.75;;;11.50;nan
17311;BME280;8773;43.300;0.394;2023-03-14T03:57:27;99652.44;;;11.45;nan
17311;BME280;8773;43.300;0.394;2023-03-14T03:59:55;99664.28;;;11.42;nan
17311;BME280;8773;43.300;0.394;2023-03-14T04:02:22;99669.50;;;11.18;nan
17311;BME280;8773;43.300;0.394;2023-03-14T04:04:51;99679.72;;;11.22;nan
17311;BME280;8773;43.300;0.394;2023-03-14T04:07:20;99678.16;;;11.03;nan
17311;BME280;8773;43.300;0.394;2023-03-14T04:09:48;99681.00;;;11.10;nan
17311;BME280;8773;43.300;0.394;2023-03-14T04:12:16;99687.38;;;11.09;nan
17311;BME280;8773;43.300;0.394;2023-03-14T04:14:45;99688.38;;;10.82;nan
17311;BME280;8773;43.300;0.394;2023-03-14T04:17:13;99691.22;;;10.81;nan
17311;BME280;8773;43.300;0.394;2023-03-14T04:19:41;99698.97;;;10.92;nan
17311;BME280;8773;43.300;0.394;2023-03-14T04:22:09;99690.72;;;10.51;nan
17311;BME280;8773;43.300;0.394;2023-03-14T04:24:38;99695.72;;;10.80;nan
17311;BME280;8773;43.300;0.394;2023-03-14T04:27:06;99691.75;;;10.84;nan
17311;BME280;8773;43.300;0.394;2023-03-14T04:29:34;99684.34;;;11.04;nan
17311;BME280;8773;43.300;0.394;2023-03-14T04:32:02;99690.22;;;10.82;nan
17311;BME280;8773;43.300;0.394;2023-03-14T04:34:30;99702.56;;;11.08;nan
17311;BME280;8773;43.300;0.394;2023-03-14T04:36:58;99707.75;;;11.18;nan
17311;BME280;8773;43.300;0.394;2023-03-14T04:39:26;99699.00;;;11.34;nan
17311;BME280;8773;43.300;0.394;2023-03-14T04:41:56;99687.16;;;11.36;nan
17311;BME280;8773;43.300;0.394;2023-03-14T04:44:24;99688.47;;;11.32;nan
17311;BME280;8773;43.300;0.394;2023-03-14T04:46:52;99698.81;;;11.27;nan
17311;BME280;8773;43.300;0.394;2023-03-14T04:49:20;99704.72;;;10.79;nan
17311;BME280;8773;43.300;0.394;2023-03-14T04:51:48;99702.78;;;10.89;nan
17311;BME280;8773;43.300;0.394;2023-03-14T04:54:17;99718.38;;;11.02;nan
17311;BME280;8773;43.300;0.394;2023-03-14T04:56:46;99733.38;;;10.95;nan
17311;BME280;8773;43.300;0.394;2023-03-14T04:59:15;99753.53;;;10.89;nan
17311;BME280;8773;43.300;0.394;2023-03-14T05:01:43;99760.41;;;10.92;nan
17311;BME280;8773;43.300;0.394;2023-03-14T05:04:11;99756.09;;;10.73;nan
17311;BME280;8773;43.300;0.394;2023-03-14T05:06:39;99776.25;;;10.67;nan
17311;BME280;8773;43.300;0.394;2023-03-14T05:09:08;99793.22;;;10.40;nan
17311;BME280;8773;43.300;0.394;2023-03-14T05:11:36;99808.69;;;10.01;nan
17311;BME280;8773;43.300;0.394;2023-03-14T05:14:04;99786.28;;;9.67;nan
17311;BME280;8773;43.300;0.394;2023-03-14T05:16:34;99789.75;;;9.40;nan
17311;BME280;8773;43.300;0.394;2023-03-14T05:19:02;99795.19;;;9.21;nan
17311;BME280;8773;43.300;0.394;2023-03-14T05:21:30;99773.28;;;9.27;nan
17311;BME280;8773;43.300;0.394;2023-03-14T05:26:18;99821.84;;;9.21;71.95
17311;BME280;8773;43.300;0.394;2023-03-14T05:28:46;99809.22;;;9.13;72.32
17311;BME280;8773;43.300;0.394;2023-03-14T05:31:14;99797.38;;;9.35;71.65
17311;BME280;8773;43.300;0.394;2023-03-14T05:33:42;99809.88;;;9.62;70.77
17311;BME280;8773;43.300;0.394;2023-03-14T05:36:10;99792.63;;;9.84;70.34
17311;BME280;8773;43.300;0.394;2023-03-14T05:38:38;99809.44;;;9.94;70.01
17311;BME280;8773;43.300;0.394;2023-03-14T05:41:07;99804.97;;;9.85;70.38
17311;BME280;8773;43.300;0.394;2023-03-14T05:43:39;99780.50;;;9.44;69.68
17311;BME280;8773;43.300;0.394;2023-03-14T05:46:07;99789.00;;;9.30;70.19
17311;BME280;8773;43.300;0.394;2023-03-14T05:48:35;99799.44;;;9.41;69.03
17311;BME280;8773;43.300;0.394;2023-03-14T05:51:03;99802.56;;;9.64;68.58
17311;BME280;8773;43.300;0.394;2023-03-14T05:53:31;99808.84;;;9.72;67.56
17311;BME280;8773;43.300;0.394;2023-03-14T05:55:59;99810.91;;;9.51;67.22
17311;BME280;8773;43.300;0.394;2023-03-14T05:58:27;99806.44;;;9.42;67.34
17311;BME280;8773;43.300;0.394;2023-03-14T06:00:57;99811.59;;;9.53;67.68
17311;BME280;8773;43.300;0.394;2023-03-14T06:03:25;99817.22;;;9.50;68.26
17311;BME280;8773;43.300;0.394;2023-03-14T06:05:53;99821.97;;;9.56;69.26
17311;BME280;8773;43.300;0.394;2023-03-14T06:08:21;99831.91;;;9.64;69.96
17311;BME280;8773;43.300;0.394;2023-03-14T06:10:49;99826.91;;;9.51;71.57
17311;BME280;8773;43.300;0.394;2023-03-14T06:13:18;99821.16;;;9.46;72.71
17311;BME280;8773;43.300;0.394;2023-03-14T06:15:46;99825.03;;;9.34;74.07
17311;BME280;8773;43.300;0.394;2023-03-14T06:18:15;99838.00;;;9.47;74.32
17311;BME280;8773;43.300;0.394;2023-03-14T06:20:43;99829.00;;;9.48;73.97
17311;BME280;8773;43.300;0.394;2023-03-14T06:23:11;99832.50;;;9.48;72.47
17311;BME280;8773;43.300;0.394;2023-03-14T06:25:40;99835.19;;;9.48;72.83
17311;BME280;8773;43.300;0.394;2023-03-14T06:28:08;99876.44;;;9.44;72.96
17311;BME280;8773;43.300;0.394;2023-03-14T06:30:35;99899.00;;;9.50;75.34
17311;BME280;8773;43.300;0.394;2023-03-14T06:33:03;99888.50;;;9.48;72.86
17311;BME280;8773;43.300;0.394;2023-03-14T06:35:33;99879.06;;;9.07;71.10
17311;BME280;8773;43.300;0.394;2023-03-14T06:38:01;99894.47;;;9.03;70.64
17311;BME280;8773;43.300;0.394;2023-03-14T06:40:30;99904.88;;;8.87;70.46
17311;BME280;8773;43.300;0.394;2023-03-14T06:43:01;99900.22;;;9.18;70.81
17311;BME280;8773;43.300;0.394;2023-03-14T06:45:29;99893.06;;;9.19;71.17
17311;BME280;8773;43.300;0.394;2023-03-14T06:47:57;99890.81;;;9.24;71.71
17311;BME280;8773;43.300;0.394;2023-03-14T06:50:25;99891.31;;;9.37;72.09
17311;BME280;8773;43.300;0.394;2023-03-14T06:52:54;99896.31;;;9.59;71.96
17311;BME280;8773;43.300;0.394;2023-03-14T06:55:22;99897.69;;;9.63;71.15
17311;BME280;8773;43.300;0.394;2023-03-14T06:57:50;99906.88;;;9.88;70.50
17311;BME280;8773;43.300;0.394;2023-03-14T07:00:19;99905.16;;;9.97;70.83
17311;BME280;8773;43.300;0.394;2023-03-14T07:02:47;99891.53;;;10.00;70.00
17311;BME280;8773;43.300;0.394;2023-03-14T07:05:15;99895.38;;;10.15;70.17
17311;BME280;8773;43.300;0.394;2023-03-14T07:07:43;99893.13;;;10.20;69.71
17311;BME280;8773;43.300;0.394;2023-03-14T07:10:12;99895.63;;;10.39;69.20
17311;BME280;8773;43.300;0.394;2023-03-14T07:12:40;99901.56;;;10.33;70.01
17311;BME280;8773;43.300;0.394;2023-03-14T07:15:09;99891.59;;;10.35;69.75
17311;BME280;8773;43.300;0.394;2023-03-14T07:17:45;99909.44;;;10.35;70.84
17311;BME280;8773;43.300;0.394;2023-03-14T07:20:15;99912.13;;;10.53;69.48
17311;BME280;8773;43.300;0.394;2023-03-14T07:22:43;99934.09;;;10.47;70.74
17311;BME280;8773;43.300;0.394;2023-03-14T07:25:12;99915.50;;;10.55;71.66
17311;BME280;8773;43.300;0.394;2023-03-14T07:27:42;99918.16;;;10.55;71.85
17311;BME280;8773;43.300;0.394;2023-03-14T07:30:11;99927.25;;;10.62;72.69
17311;BME280;8773;43.300;0.394;2023-03-14T07:32:39;99934.00;;;10.38;72.36
17311;BME280;8773;43.300;0.394;2023-03-14T07:35:08;99931.63;;;10.35;72.64
17311;BME280;8773;43.300;0.394;2023-03-14T07:37:37;99936.66;;;10.38;73.82
17311;BME280;8773;43.300;0.394;2023-03-14T07:40:06;99921.97;;;10.52;73.69
17311;BME280;8773;43.300;0.394;2023-03-14T07:42:35;99931.66;;;10.71;73.01
17311;BME280;8773;43.300;0.394;2023-03-14T07:45:04;99918.75;;;10.66;72.80
17311;BME280;8773;43.300;0.394;2023-03-14T07:47:33;99940.63;;;10.34;71.05
17311;BME280;8773;43.300;0.394;2023-03-14T07:50:01;99939.44;;;10.47;71.75
17311;BME280;8773;43.300;0.394;2023-03-14T07:52:30;99934.78;;;10.49;71.23
17311;BME280;8773;43.300;0.394;2023-03-14T07:54:58;99930.91;;;10.61;71.21
17311;BME280;8773;43.300;0.394;2023-03-14T07:57:25;99930.66;;;10.72;71.17
17311;BME280;8773;43.300;0.394;2023-03-14T07:59:57;99945.25;;;10.60;70.92
17311;BME280;8773;43.300;0.394;2023-03-14T08:02:26;99932.94;;;10.67;70.36
17311;BME280;8773;43.300;0.394;2023-03-14T08:04:54;99931.22;;;10.93;69.87
17311;BME280;8773;43.300;0.394;2023-03-14T08:07:22;99938.88;;;11.14;68.47
17311;BME280;8773;43.300;0.394;2023-03-14T08:09:50;99933.19;;;11.27;66.48
17311;BME280;8773;43.300;0.394;2023-03-14T08:12:18;99943.09;;;11.34;67.34
17311;BME280;8773;43.300;0.394;2023-03-14T08:14:46;99953.50;;;11.37;65.70
17311;BME280;8773;43.300;0.394;2023-03-14T08:17:15;99960.34;;;11.40;66.15
17311;BME280;8773;43.300;0.394;2023-03-14T08:19:43;99954.63;;;11.61;64.97
17311;BME280;8773;43.300;0.394;2023-03-14T08:22:11;99960.03;;;11.95;64.26
17311;BME280;8773;43.300;0.394;2023-03-14T08:24:39;99979.34;;;12.15;63.22
17311;BME280;8773;43.300;0.394;2023-03-14T08:27:07;99989.22;;;12.14;64.00
17311;BME280;8773;43.300;0.394;2023-03-14T08:29:36;99985.31;;;11.74;63.90
17311;BME280;8773;43.300;0.394;2023-03-14T08:32:04;99985.72;;;11.62;65.03
17311;BME280;8773;43.300;0.394;2023-03-14T08:34:34;100002.06;;;11.33;65.40
17311;BME280;8773;43.300;0.394;2023-03-14T08:37:02;99995.34;;;11.29;66.16
17311;BME280;8773;43.300;0.394;2023-03-14T08:39:41;100003.38;;;11.29;66.32
17311;BME280;8773;43.300;0.394;2023-03-14T08:42:09;100005.97;;;11.64;65.46
17311;BME280;8773;43.300;0.394;2023-03-14T08:44:37;100008.41;;;11.75;63.69
17311;BME280;8773;43.300;0.394;2023-03-14T08:47:05;99998.84;;;11.99;63.76
17311;BME280;8773;43.300;0.394;2023-03-14T08:49:35;100000.88;;;12.31;62.88
17311;BME280;8773;43.300;0.394;2023-03-14T08:52:04;100019.13;;;12.43;62.72
17311;BME280;8773;43.300;0.394;2023-03-14T08:54:32;100026.91;;;12.55;62.22
17311;BME280;8773;43.300;0.394;2023-03-14T08:57:00;100024.31;;;12.37;62.02
17311;BME280;8773;43.300;0.394;2023-03-14T08:59:28;100019.47;;;12.40;62.76
17311;BME280;8773;43.300;0.394;2023-03-14T09:01:56;100023.50;;;12.45;63.19
17311;BME280;8773;43.300;0.394;2023-03-14T09:04:24;100022.28;;;12.65;62.52
17311;BME280;8773;43.300;0.394;2023-03-14T09:06:54;100027.25;;;12.52;63.39
17311;BME280;8773;43.300;0.394;2023-03-14T09:09:22;100023.56;;;13.11;61.03
17311;BME280;8773;43.300;0.394;2023-03-14T09:11:50;100021.69;;;13.03;61.72
17311;BME280;8773;43.300;0.394;2023-03-14T09:14:18;100024.38;;;12.95;61.28
17311;BME280;8773;43.300;0.394;2023-03-14T09:16:48;100019.72;;;13.38;60.53
17311;BME280;8773;43.300;0.394;2023-03-14T09:19:17;100023.94;;;13.57;59.62
17311;BME280;8773;43.300;0.394;2023-03-14T09:21:45;100015.03;;;13.81;58.86
17311;BME280;8773;43.300;0.394;2023-03-14T09:24:15;100009.50;;;13.90;57.96
17311;BME280;8773;43.300;0.394;2023-03-14T09:26:43;100021.66;;;14.17;57.22
17311;BME280;8773;43.300;0.394;2023-03-14T09:29:11;100017.34;;;14.08;57.27
17311;BME280;8773;43.300;0.394;2023-03-14T09:31:39;100024.25;;;13.70;57.89
17311;BME280;8773;43.300;0.394;2023-03-14T09:34:07;100036.81;;;13.45;60.41
17311;BME280;8773;43.300;0.394;2023-03-14T09:36:35;100032.78;;;13.08;60.97
17311;BME280;8773;43.300;0.394;2023-03-14T09:39:04;100028.34;;;12.75;63.08
17311;BME280;8773;43.300;0.394;2023-03-14T09:41:37;100034.78;;;12.56;63.94
17311;BME280;8773;43.300;0.394;2023-03-14T09:44:11;100037.34;;;12.32;65.26
17311;BME280;8773;43.300;0.394;2023-03-14T09:46:43;100044.59;;;12.14;64.95
17311;BME280;8773;43.300;0.394;2023-03-14T09:49:20;100062.44;;;12.05;66.33
17311;BME280;8773;43.300;0.394;2023-03-14T09:51:52;100084.28;;;12.18;67.11
17311;BME280;8773;43.300;0.394;2023-03-14T09:54:31;100090.34;;;12.02;68.93
17311;BME280;8773;43.300;0.394;2023-03-14T09:57:02;100099.75;;;11.63;68.63
17311;BME280;8773;43.300;0.394;2023-03-14T09:59:31;100103.53;;;11.25;69.26
17311;BME280;8773;43.300;0.394;2023-03-14T10:02:01;100098.78;;;11.46;69.39
17311;BME280;8773;43.300;0.394;2023-03-14T10:04:30;100107.19;;;11.24;69.41
17311;BME280;8773;43.300;0.394;2023-03-14T10:06:59;100130.09;;;11.08;70.22
17311;BME280;8773;43.300;0.394;2023-03-14T10:09:30;100137.88;;;11.02;71.37
17311;BME280;8773;43.300;0.394;2023-03-14T10:11:58;100132.84;;;10.62;69.25
17311;BME280;8773;43.300;0.394;2023-03-14T10:14:33;100115.69;;;10.64;70.38
17311;BME280;8773;43.300;0.394;2023-03-14T10:17:06;100112.22;;;10.82;68.52
17311;BME280;8773;43.300;0.394;2023-03-14T10:19:36;100105.09;;;11.00;67.11
17311;BME280;8773;43.300;0.394;2023-03-14T10:22:04;100114.09;;;11.26;67.17
17311;BME280;8773;43.300;0.394;2023-03-14T10:24:34;100114.03;;;11.71;65.37
17311;BME280;8773;43.300;0.394;2023-03-14T10:27:04;100103.34;;;11.97;64.10
17311;BME280;8773;43.300;0.394;2023-03-14T10:29:34;100116.53;;;12.34;63.63
17311;BME280;8773;43.300;0.394;2023-03-14T10:32:19;100107.81;;;12.40;64.53
17311;BME280;8773;43.300;0.394;2023-03-14T10:35:06;100115.53;;;12.43;65.27
17311;BME280;8773;43.300;0.394;2023-03-14T10:37:35;100116.53;;;12.42;65.47
17311;BME280;8773;43.300;0.394;2023-03-14T10:40:04;100127.63;;;12.22;66.18
17311;BME280;8773;43.300;0.394;2023-03-14T10:42:39;100108.81;;;12.31;66.32
17311;BME280;8773;43.300;0.394;2023-03-14T10:45:29;100114.69;;;12.35;66.24
17311;BME280;8773;43.300;0.394;2023-03-14T10:48:05;100118.34;;;12.34;66.93
17311;BME280;8773;43.300;0.394;2023-03-14T10:50:34;100122.19;;;12.31;67.32
17311;BME280;8773;43.300;0.394;2023-03-14T10:53:03;100114.91;;;11.98;68.01
17311;BME280;8773;43.300;0.394;2023-03-14T10:55:40;100143.69;;;11.15;67.25
17311;BME280;8773;43.300;0.394;2023-03-14T10:58:20;100134.44;;;11.09;70.02
17311;BME280;8773;43.300;0.394;2023-03-14T11:00:54;100140.28;;;10.95;71.87
17311;BME280;8773;43.300;0.394;2023-03-14T11:03:27;100130.00;;;11.00;70.47
17311;BME280;8773;43.300;0.394;2023-03-14T11:06:06;100117.56;;;11.09;70.94
17311;BME280;8773;43.300;0.394;2023-03-14T11:08:42;100096.63;;;11.32;70.28
17311;BME280;8773;43.300;0.394;2023-03-14T11:11:18;100109.13;;;11.67;68.38
17311;BME280;8773;43.300;0.394;2023-03-14T11:13:57;100108.25;;;12.02;68.19
17311;BME280;8773;43.300;0.394;2023-03-14T11:16:35;100108.59;;;11.81;68.68
17311;BME280;8773;43.300;0.394;2023-03-14T11:19:22;100103.63;;;11.86;68.46
17311;BME280;8773;43.300;0.394;2023-03-14T11:21:55;100090.88;;;12.06;68.80
17311;BME280;8773;43.300;0.394;2023-03-14T11:24:38;100093.41;;;12.07;67.85
17311;BME280;8773;43.300;0.394;2023-03-14T11:27:17;100094.38;;;12.24;67.52
17311;BME280;8773;43.300;0.394;2023-03-14T11:29:55;100089.22;;;12.57;66.92
17311;BME280;8773;43.300;0.394;2023-03-14T11:32:35;100075.31;;;13.03;66.30
17311;BME280;8773;43.300;0.394;2023-03-14T11:35:16;100077.88;;;13.21;63.03
17311;BME280;8773;43.300;0.394;2023-03-14T11:37:47;100085.47;;;13.58;63.82
17311;BME280;8773;43.300;0.394;2023-03-14T11:40:21;100095.72;;;13.71;63.16
17311;BME280;8773;43.300;0.394;2023-03-14T11:43:08;100106.78;;;13.76;64.12
17311;BME280;8773;43.300;0.394;2023-03-14T11:45:41;100126.69;;;13.41;64.18
17311;BME280;8773;43.300;0.394;2023-03-14T11:48:28;100127.16;;;12.86;65.77
17311;BME280;8773;43.300;0.394;2023-03-14T11:50:59;100134.72;;;12.83;66.88
17311;BME280;8773;43.300;0.394;2023-03-14T11:53:39;100133.59;;;12.41;67.39
17311;BME280;8773;43.300;0.394;2023-03-14T11:56:13;100126.72;;;12.13;68.10
17311;BME280;8773;43.300;0.394;2023-03-14T11:58:54;100128.06;;;12.61;66.07
17311;BME280;8773;43.300;0.394;2023-03-14T12:01:27;100126.78;;;13.15;64.93
17311;BME280;8773;43.300;0.394;2023-03-14T12:04:04;100124.00;;;13.49;63.22
17311;BME280;8773;43.300;0.394;2023-03-14T12:06:39;100114.19;;;13.90;62.37
17311;BME280;8773;43.300;0.394;2023-03-14T12:09:13;100104.88;;;14.33;61.70
17311;BME280;8773;43.300;0.394;2023-03-14T12:11:45;100098.56;;;14.10;62.02
17311;BME280;8773;43.300;0.394;2023-03-14T12:14:19;100109.25;;;14.34;61.66
17311;BME280;8773;43.300;0.394;2023-03-14T12:16:49;100097.72;;;13.85;62.55
17311;BME280;8773;43.300;0.394;2023-03-14T12:19:37;100116.19;;;13.05;65.13
17311;BME280;8773;43.300;0.394;2023-03-14T12:22:13;100136.47;;;12.66;67.46
17311;BME280;8773;43.300;0.394;2023-03-14T12:24:47;100140.66;;;12.17;66.58
17311;BME280;8773;43.300;0.394;2023-03-14T12:27:43;100141.53;;;11.64;69.51
17311;BME280;8773;43.300;0.394;2023-03-14T12:30:24;100150.00;;;11.14;70.43
17311;BME280;8773;43.300;0.394;2023-03-14T12:33:19;100140.88;;;10.89;71.40
17311;BME280;8773;43.300;0.394;2023-03-14T12:35:52;100141.03;;;10.88;70.99
17311;BME280;8773;43.300;0.394;2023-03-14T12:38:25;100127.31;;;11.00;69.90
17311;BME280;8773;43.300;0.394;2023-03-14T12:41:01;100131.38;;;11.04;68.47
17311;BME280;8773;43.300;0.394;2023-03-14T12:43:33;100131.69;;;11.01;68.60
17311;BME280;8773;43.300;0.394;2023-03-14T12:46:19;100130.56;;;11.22;68.48
17311;BME280;8773;43.300;0.394;2023-03-14T12:48:48;100130.84;;;11.28;68.29
17311;BME280;8773;43.300;0.394;2023-03-14T12:51:19;100122.00;;;11.18;68.75
17311;BME280;8773;43.300;0.394;2023-03-14T12:57:14;100115.72;;;11.72;68.07
17311;BME280;8773;43.300;0.394;2023-03-14T12:59:51;100103.06;;;12.00;67.20
17311;BME280;8773;43.300;0.394;2023-03-14T13:02:23;100105.47;;;12.12;67.73
17311;BME280;8773;43.300;0.394;2023-03-14T13:04:59;100099.47;;;12.43;67.28
17311;BME280;8773;43.300;0.394;2023-03-14T13:07:33;100101.03;;;12.80;66.33
17311;BME280;8773;43.300;0.394;2023-03-14T13:10:18;100103.16;;;12.68;65.88
17311;BME280;8773;43.300;0.394;2023-03-14T13:12:54;100106.72;;;12.77;66.99
17311;BME280;8773;43.300;0.394;2023-03-14T13:15:27;100107.41;;;12.79;66.61
17311;BME280;8773;43.300;0.394;2023-03-14T13:18:01;100110.13;;;12.95;66.18
17311;BME280;8773;43.300;0.394;2023-03-14T13:20:32;100093.25;;;13.11;65.53
17311;BME280;8773;43.300;0.394;2023-03-14T13:23:04;100084.75;;;13.24;64.94
17311;BME280;8773;43.300;0.394;2023-03-14T13:25:33;100082.75;;;13.42;65.22
17311;BME280;8773;43.300;0.394;2023-03-14T13:28:03;100076.22;;;13.53;64.51
17311;BME280;8773;43.300;0.394;2023-03-14T13:30:38;100071.53;;;13.47;64.70
17311;BME280;8773;43.300;0.394;2023-03-14T13:33:12;100073.75;;;13.84;63.76
17311;BME280;8773;43.300;0.394;2023-03-14T13:35:43;100066.31;;;14.18;62.71
17311;BME280;8773;43.300;0.394;2023-03-14T13:38:20;100055.34;;;14.36;61.59
17311;BME280;8773;43.300;0.394;2023-03-14T13:40:50;100053.69;;;14.27;61.39